sensor_id;sensor_type;location;lat;lon;timestamp;P1;durP1;ratioP1;P2;durP2;ratioP2
15913;SDS011;8055;51.930;8.840;2022-09-12T00:00:04;13.88;;;7.88;;
15913;SDS011;8055;51.930;8.840;2022-09-12T00:02:30;12.57;;;8.98;;
15913;SDS011;8055;51.930;8.840;2022-09-12T00:04:56;10.40;;;8.45;;
15913;SDS011;8055;51.930;8.840;2022-09-12T00:07:21;11.82;;;9.15;;
15913;SDS011;8055;51.930;8.840;2022-09-12T00:09:46;13.60;;;8.88;;
15913;SDS011;8055;51.930;8.840;2022-09-12T00:12:12;13.50;;;8.75;;
15913;SDS011;8055;51.930;8.840;2022-09-12T00:14:37;13.25;;;8.50;;
15913;SDS011;8055;51.930;8.840;2022-09-12T00:17:02;14.32;;;9.30;;
15913;SDS011;8055;51.930;8.840;2022-09-12T00:19:28;12.02;;;8.85;;
15913;SDS011;8055;51.930;8.840;2022-09-12T00:21:54;14.15;;;8.65;;
15913;SDS011;8055;51.930;8.840;2022-09-12T00:24:20;13.63;;;9.00;;
15913;SDS011;8055;51.930;8.840;2022-09-12T00:26:46;11.90;;;8.10;;
15913;SDS011;8055;51.930;8.840;2022-09-12T00:29:16;10.00;;;7.97;;
15913;SDS011;8055;51.930;8.840;2022-09-12T00:31:43;10.57;;;8.05;;
15913;SDS011;8055;51.930;8.840;2022-09-12T00:34:08;13.43;;;9.38;;
15913;SDS011;8055;51.930;8.840;2022-09-12T00:36:34;13.38;;;8.93;;
15913;SDS011;8055;51.930;8.840;2022-09-12T00:39:00;10.70;;;8.77;;
15913;SDS011;8055;51.930;8.840;2022-09-12T00:41:36;13.15;;;9.20;;
15913;SDS011;8055;51.930;8.840;2022-09-12T00:51:41;11.77;;;8.10;;
15913;SDS011;8055;51.930;8.840;2022-09-12T00:54:13;9.95;;;7.43;;
15913;SDS011;8055;51.930;8.840;2022-09-12T00:56:43;12.43;;;9.57;;
15913;SDS011;8055;51.930;8.840;2022-09-12T00:59:13;11.43;;;8.40;;
15913;SDS011;8055;51.930;8.840;2022-09-12T01:01:51;15.60;;;9.43;;
15913;SDS011;8055;51.930;8.840;2022-09-12T01:04:19;13.63;;;9.10;;
15913;SDS011;8055;51.930;8.840;2022-09-12T01:06:47;12.63;;;9.70;;
15913;SDS011;8055;51.930;8.840;2022-09-12T01:09:16;14.20;;;9.90;;
15913;SDS011;8055;51.930;8.840;2022-09-12T01:11:44;10.32;;;8.70;;
15913;SDS011;8055;51.930;8.840;2022-09-12T01:14:13;12.90;;;9.52;;
15913;SDS011;8055;51.930;8.840;2022-09-12T01:16:39;12.50;;;8.68;;
15913;SDS011;8055;51.930;8.840;2022-09-12T01:19:12;10.90;;;8.65;;
15913;SDS011;8055;51.930;8.840;2022-09-12T01:24:47;15.30;;;8.88;;
15913;SDS011;8055;51.930;8.840;2022-09-12T01:27:28;11.77;;;8.00;;
15913;SDS011;8055;51.930;8.840;2022-09-12T01:43:35;10.70;;;8.37;;
15913;SDS011;8055;51.930;8.840;2022-09-12T01:46:16;10.98;;;8.10;;
15913;SDS011;8055;51.930;8.840;2022-09-12T01:51:34;12.93;;;9.05;;
15913;SDS011;8055;51.930;8.840;2022-09-12T01:54:09;9.70;;;7.65;;
15913;SDS011;8055;51.930;8.840;2022-09-12T01:56:44;13.23;;;8.38;;
15913;SDS011;8055;51.930;8.840;2022-09-12T01:59:29;11.00;;;7.60;;
15913;SDS011;8055;51.930;8.840;2022-09-12T02:07:01;11.40;;;8.82;;
15913;SDS011;8055;51.930;8.840;2022-09-12T02:09:35;12.27;;;8.93;;
15913;SDS011;8055;51.930;8.840;2022-09-12T02:12:06;14.40;;;9.05;;
15913;SDS011;8055;51.930;8.840;2022-09-12T02:14:39;10.90;;;8.18;;
15913;SDS011;8055;51.930;8.840;2022-09-12T02:17:11;11.40;;;8.48;;
15913;SDS011;8055;51.930;8.840;2022-09-12T02:20:00;12.75;;;8.45;;
15913;SDS011;8055;51.930;8.840;2022-09-12T02:22:42;12.45;;;9.52;;
15913;SDS011;8055;51.930;8.840;2022-09-12T02:25:09;11.25;;;8.88;;
15913;SDS011;8055;51.930;8.840;2022-09-12T02:27:45;11.93;;;8.77;;
15913;SDS011;8055;51.930;8.840;2022-09-12T02:30:13;11.82;;;9.13;;
15913;SDS011;8055;51.930;8.840;2022-09-12T02:35:45;12.63;;;9.40;;
15913;SDS011;8055;51.930;8.840;2022-09-12T02:41:01;14.20;;;9.32;;
15913;SDS011;8055;51.930;8.840;2022-09-12T02:43:27;12.50;;;8.77;;
15913;SDS011;8055;51.930;8.840;2022-09-12T02:45:53;13.43;;;9.07;;
15913;SDS011;8055;51.930;8.840;2022-09-12T02:48:29;11.85;;;8.55;;
15913;SDS011;8055;51.930;8.840;2022-09-12T02:50:58;13.02;;;8.95;;
15913;SDS011;8055;51.930;8.840;2022-09-12T02:53:24;12.15;;;8.73;;
15913;SDS011;8055;51.930;8.840;2022-09-12T02:55:50;11.07;;;9.18;;
15913;SDS011;8055;51.930;8.840;2022-09-12T02:58:18;13.25;;;9.48;;
15913;SDS011;8055;51.930;8.840;2022-09-12T03:00:47;13.00;;;9.57;;
15913;SDS011;8055;51.930;8.840;2022-09-12T03:06:12;10.15;;;7.47;;
15913;SDS011;8055;51.930;8.840;2022-09-12T03:27:35;13.13;;;8.90;;
15913;SDS011;8055;51.930;8.840;2022-09-12T03:30:05;12.18;;;8.90;;
15913;SDS011;8055;51.930;8.840;2022-09-12T03:32:42;11.75;;;8.80;;
15913;SDS011;8055;51.930;8.840;2022-09-12T03:35:08;13.23;;;9.07;;
15913;SDS011;8055;51.930;8.840;2022-09-12T03:37:35;15.95;;;9.90;;
15913;SDS011;8055;51.930;8.840;2022-09-12T03:40:00;12.77;;;9.27;;
15913;SDS011;8055;51.930;8.840;2022-09-12T03:42:26;11.10;;;8.38;;
15913;SDS011;8055;51.930;8.840;2022-09-12T03:44:52;12.05;;;8.73;;
15913;SDS011;8055;51.930;8.840;2022-09-12T03:47:17;10.30;;;8.27;;
15913;SDS011;8055;51.930;8.840;2022-09-12T03:49:42;11.25;;;8.40;;
15913;SDS011;8055;51.930;8.840;2022-09-12T03:52:08;11.45;;;9.23;;
15913;SDS011;8055;51.930;8.840;2022-09-12T03:54:33;13.77;;;9.38;;
15913;SDS011;8055;51.930;8.840;2022-09-12T03:56:58;10.32;;;8.20;;
15913;SDS011;8055;51.930;8.840;2022-09-12T03:59:24;12.00;;;8.45;;
15913;SDS011;8055;51.930;8.840;2022-09-12T04:01:49;13.77;;;9.50;;
15913;SDS011;8055;51.930;8.840;2022-09-12T04:04:14;13.82;;;9.32;;
15913;SDS011;8055;51.930;8.840;2022-09-12T04:06:40;11.07;;;9.07;;
15913;SDS011;8055;51.930;8.840;2022-09-12T04:09:06;14.52;;;9.85;;
15913;SDS011;8055;51.930;8.840;2022-09-12T04:11:32;13.18;;;9.10;;
15913;SDS011;8055;51.930;8.840;2022-09-12T04:13:57;13.40;;;9.43;;
15913;SDS011;8055;51.930;8.840;2022-09-12T04:16:23;15.32;;;10.27;;
15913;SDS011;8055;51.930;8.840;2022-09-12T04:18:48;12.27;;;8.60;;
15913;SDS011;8055;51.930;8.840;2022-09-12T04:21:15;12.05;;;9.35;;
15913;SDS011;8055;51.930;8.840;2022-09-12T04:23:42;10.70;;;8.40;;
15913;SDS011;8055;51.930;8.840;2022-09-12T04:26:08;12.30;;;8.60;;
15913;SDS011;8055;51.930;8.840;2022-09-12T04:28:35;13.68;;;8.88;;
15913;SDS011;8055;51.930;8.840;2022-09-12T04:31:02;13.35;;;8.90;;
15913;SDS011;8055;51.930;8.840;2022-09-12T04:33:33;11.13;;;8.75;;
15913;SDS011;8055;51.930;8.840;2022-09-12T04:36:06;11.60;;;8.93;;
15913;SDS011;8055;51.930;8.840;2022-09-12T04:38:34;13.45;;;9.05;;
15913;SDS011;8055;51.930;8.840;2022-09-12T04:40:59;16.80;;;9.20;;
15913;SDS011;8055;51.930;8.840;2022-09-12T04:43:25;13.10;;;8.95;;
15913;SDS011;8055;51.930;8.840;2022-09-12T04:45:51;13.70;;;8.90;;
15913;SDS011;8055;51.930;8.840;2022-09-12T04:48:16;8.93;;;7.72;;
15913;SDS011;8055;51.930;8.840;2022-09-12T04:50:42;11.20;;;8.52;;
15913;SDS011;8055;51.930;8.840;2022-09-12T04:53:07;11.68;;;8.57;;
15913;SDS011;8055;51.930;8.840;2022-09-12T04:55:33;10.73;;;8.30;;
15913;SDS011;8055;51.930;8.840;2022-09-12T04:57:59;12.77;;;7.97;;
15913;SDS011;8055;51.930;8.840;2022-09-12T05:00:25;12.77;;;8.63;;
15913;SDS011;8055;51.930;8.840;2022-09-12T05:02:51;11.73;;;8.68;;
15913;SDS011;8055;51.930;8.840;2022-09-12T05:05:16;12.43;;;8.32;;
15913;SDS011;8055;51.930;8.840;2022-09-12T05:07:41;12.48;;;8.57;;
15913;SDS011;8055;51.930;8.840;2022-09-12T05:10:07;11.90;;;7.70;;
15913;SDS011;8055;51.930;8.840;2022-09-12T05:12:33;10.07;;;7.95;;
15913;SDS011;8055;51.930;8.840;2022-09-12T05:14:58;13.25;;;9.48;;
15913;SDS011;8055;51.930;8.840;2022-09-12T05:17:24;13.43;;;8.95;;
15913;SDS011;8055;51.930;8.840;2022-09-12T05:19:49;11.50;;;8.95;;
15913;SDS011;8055;51.930;8.840;2022-09-12T05:22:14;9.60;;;8.07;;
15913;SDS011;8055;51.930;8.840;2022-09-12T05:24:40;10.88;;;8.15;;
15913;SDS011;8055;51.930;8.840;2022-09-12T05:27:07;13.80;;;8.70;;
15913;SDS011;8055;51.930;8.840;2022-09-12T05:29:33;10.85;;;8.00;;
15913;SDS011;8055;51.930;8.840;2022-09-12T05:31:59;14.05;;;8.13;;
15913;SDS011;8055;51.930;8.840;2022-09-12T05:34:24;11.90;;;8.27;;
15913;SDS011;8055;51.930;8.840;2022-09-12T05:36:51;10.10;;;7.75;;
15913;SDS011;8055;51.930;8.840;2022-09-12T05:39:17;12.07;;;9.00;;
15913;SDS011;8055;51.930;8.840;2022-09-12T05:41:42;11.98;;;8.70;;
15913;SDS011;8055;51.930;8.840;2022-09-12T05:44:10;10.93;;;9.13;;
15913;SDS011;8055;51.930;8.840;2022-09-12T05:46:37;10.57;;;8.45;;
15913;SDS011;8055;51.930;8.840;2022-09-12T05:49:05;12.75;;;10.25;;
15913;SDS011;8055;51.930;8.840;2022-09-12T05:51:35;11.50;;;8.95;;
15913;SDS011;8055;51.930;8.840;2022-09-12T05:54:02;10.00;;;8.40;;
15913;SDS011;8055;51.930;8.840;2022-09-12T05:56:30;9.15;;;8.13;;
15913;SDS011;8055;51.930;8.840;2022-09-12T05:59:05;9.52;;;8.20;;
15913;SDS011;8055;51.930;8.840;2022-09-12T06:01:33;10.25;;;9.18;;
15913;SDS011;8055;51.930;8.840;2022-09-12T06:04:01;9.98;;;8.52;;
15913;SDS011;8055;51.930;8.840;2022-09-12T06:06:29;10.73;;;8.77;;
15913;SDS011;8055;51.930;8.840;2022-09-12T06:08:59;12.00;;;9.45;;
15913;SDS011;8055;51.930;8.840;2022-09-12T06:11:27;12.00;;;9.90;;
15913;SDS011;8055;51.930;8.840;2022-09-12T06:13:55;11.32;;;9.13;;
15913;SDS011;8055;51.930;8.840;2022-09-12T06:16:23;13.52;;;10.02;;
15913;SDS011;8055;51.930;8.840;2022-09-12T06:18:51;11.00;;;8.85;;
15913;SDS011;8055;51.930;8.840;2022-09-12T06:21:18;11.45;;;9.55;;
15913;SDS011;8055;51.930;8.840;2022-09-12T06:23:45;14.02;;;9.40;;
15913;SDS011;8055;51.930;8.840;2022-09-12T06:26:12;10.82;;;9.20;;
15913;SDS011;8055;51.930;8.840;2022-09-12T06:28:39;9.63;;;8.45;;
15913;SDS011;8055;51.930;8.840;2022-09-12T06:31:06;13.55;;;9.73;;
15913;SDS011;8055;51.930;8.840;2022-09-12T06:33:35;13.98;;;9.77;;
15913;SDS011;8055;51.930;8.840;2022-09-12T06:36:06;14.20;;;9.98;;
15913;SDS011;8055;51.930;8.840;2022-09-12T06:38:36;16.33;;;11.00;;
15913;SDS011;8055;51.930;8.840;2022-09-12T06:41:03;16.80;;;11.52;;
15913;SDS011;8055;51.930;8.840;2022-09-12T06:43:33;12.27;;;10.55;;
15913;SDS011;8055;51.930;8.840;2022-09-12T06:46:00;15.38;;;11.02;;
15913;SDS011;8055;51.930;8.840;2022-09-12T06:48:26;16.55;;;11.00;;
15913;SDS011;8055;51.930;8.840;2022-09-12T06:50:58;16.60;;;11.95;;
15913;SDS011;8055;51.930;8.840;2022-09-12T06:53:26;14.05;;;11.45;;
15913;SDS011;8055;51.930;8.840;2022-09-12T06:58:26;17.10;;;11.52;;
15913;SDS011;8055;51.930;8.840;2022-09-12T07:00:57;14.70;;;12.02;;
15913;SDS011;8055;51.930;8.840;2022-09-12T07:03:29;12.60;;;10.95;;
15913;SDS011;8055;51.930;8.840;2022-09-12T07:05:55;11.63;;;9.88;;
15913;SDS011;8055;51.930;8.840;2022-09-12T07:08:20;13.13;;;11.10;;
15913;SDS011;8055;51.930;8.840;2022-09-12T07:10:46;16.63;;;10.00;;
15913;SDS011;8055;51.930;8.840;2022-09-12T07:13:12;13.18;;;10.73;;
15913;SDS011;8055;51.930;8.840;2022-09-12T07:15:38;11.90;;;9.98;;
15913;SDS011;8055;51.930;8.840;2022-09-12T07:18:04;11.82;;;10.18;;
15913;SDS011;8055;51.930;8.840;2022-09-12T07:20:29;14.75;;;9.65;;
15913;SDS011;8055;51.930;8.840;2022-09-12T07:22:56;15.48;;;9.32;;
15913;SDS011;8055;51.930;8.840;2022-09-12T07:25:22;11.48;;;9.40;;
15913;SDS011;8055;51.930;8.840;2022-09-12T07:27:47;12.68;;;9.57;;
15913;SDS011;8055;51.930;8.840;2022-09-12T07:30:13;12.27;;;10.02;;
15913;SDS011;8055;51.930;8.840;2022-09-12T07:32:38;23.15;;;10.73;;
15913;SDS011;8055;51.930;8.840;2022-09-12T07:35:04;14.68;;;10.27;;
15913;SDS011;8055;51.930;8.840;2022-09-12T07:37:29;10.50;;;8.68;;
15913;SDS011;8055;51.930;8.840;2022-09-12T07:39:56;11.35;;;8.38;;
15913;SDS011;8055;51.930;8.840;2022-09-12T07:42:21;13.90;;;8.23;;
15913;SDS011;8055;51.930;8.840;2022-09-12T07:44:47;12.75;;;9.40;;
15913;SDS011;8055;51.930;8.840;2022-09-12T07:47:12;11.38;;;9.05;;
15913;SDS011;8055;51.930;8.840;2022-09-12T07:49:38;8.77;;;7.80;;
15913;SDS011;8055;51.930;8.840;2022-09-12T07:52:03;11.70;;;7.18;;
15913;SDS011;8055;51.930;8.840;2022-09-12T07:54:29;9.23;;;7.55;;
15913;SDS011;8055;51.930;8.840;2022-09-12T07:56:57;9.95;;;6.50;;
15913;SDS011;8055;51.930;8.840;2022-09-12T07:59:23;10.45;;;7.43;;
15913;SDS011;8055;51.930;8.840;2022-09-12T08:01:48;10.57;;;7.67;;
15913;SDS011;8055;51.930;8.840;2022-09-12T08:04:13;7.60;;;6.80;;
15913;SDS011;8055;51.930;8.840;2022-09-12T08:06:39;8.10;;;7.20;;
15913;SDS011;8055;51.930;8.840;2022-09-12T08:09:05;8.40;;;7.40;;
15913;SDS011;8055;51.930;8.840;2022-09-12T08:11:31;10.63;;;7.60;;
15913;SDS011;8055;51.930;8.840;2022-09-12T08:13:57;8.70;;;6.57;;
15913;SDS011;8055;51.930;8.840;2022-09-12T08:16:24;7.50;;;6.68;;
15913;SDS011;8055;51.930;8.840;2022-09-12T08:18:51;10.20;;;6.38;;
15913;SDS011;8055;51.930;8.840;2022-09-12T08:21:17;6.40;;;5.80;;
15913;SDS011;8055;51.930;8.840;2022-09-12T08:24:03;11.25;;;5.90;;
15913;SDS011;8055;51.930;8.840;2022-09-12T08:26:30;7.28;;;5.72;;
15913;SDS011;8055;51.930;8.840;2022-09-12T08:28:56;6.93;;;5.82;;
15913;SDS011;8055;51.930;8.840;2022-09-12T08:31:23;7.30;;;5.57;;
15913;SDS011;8055;51.930;8.840;2022-09-12T08:33:50;6.45;;;5.60;;
15913;SDS011;8055;51.930;8.840;2022-09-12T08:36:17;5.50;;;4.70;;
15913;SDS011;8055;51.930;8.840;2022-09-12T08:38:46;6.47;;;4.82;;
15913;SDS011;8055;51.930;8.840;2022-09-12T08:46:52;8.52;;;5.47;;
15913;SDS011;8055;51.930;8.840;2022-09-12T08:49:28;5.70;;;5.10;;
15913;SDS011;8055;51.930;8.840;2022-09-12T08:51:58;6.63;;;4.75;;
15913;SDS011;8055;51.930;8.840;2022-09-12T08:54:30;6.85;;;5.22;;
15913;SDS011;8055;51.930;8.840;2022-09-12T08:56:57;6.70;;;4.82;;
15913;SDS011;8055;51.930;8.840;2022-09-12T08:59:36;7.07;;;5.25;;
15913;SDS011;8055;51.930;8.840;2022-09-12T09:02:04;8.75;;;6.05;;
15913;SDS011;8055;51.930;8.840;2022-09-12T09:04:49;6.40;;;5.07;;
15913;SDS011;8055;51.930;8.840;2022-09-12T09:07:21;5.93;;;5.22;;
15913;SDS011;8055;51.930;8.840;2022-09-12T09:10:28;5.30;;;4.78;;
15913;SDS011;8055;51.930;8.840;2022-09-12T09:16:35;6.07;;;5.10;;
15913;SDS011;8055;51.930;8.840;2022-09-12T09:19:14;7.25;;;5.95;;
15913;SDS011;8055;51.930;8.840;2022-09-12T09:21:56;5.93;;;5.32;;
15913;SDS011;8055;51.930;8.840;2022-09-12T09:24:26;9.13;;;5.13;;
15913;SDS011;8055;51.930;8.840;2022-09-12T09:26:59;7.10;;;4.78;;
15913;SDS011;8055;51.930;8.840;2022-09-12T09:29:36;4.75;;;3.88;;
15913;SDS011;8055;51.930;8.840;2022-09-12T09:32:12;8.23;;;4.75;;
15913;SDS011;8055;51.930;8.840;2022-09-12T09:34:42;6.90;;;4.53;;
15913;SDS011;8055;51.930;8.840;2022-09-12T09:37:15;6.57;;;4.50;;
15913;SDS011;8055;51.930;8.840;2022-09-12T09:40:11;5.57;;;4.40;;
15913;SDS011;8055;51.930;8.840;2022-09-12T09:42:59;7.88;;;5.18;;
15913;SDS011;8055;51.930;8.840;2022-09-12T09:45:38;8.95;;;4.45;;
15913;SDS011;8055;51.930;8.840;2022-09-12T09:50:55;7.75;;;5.07;;
15913;SDS011;8055;51.930;8.840;2022-09-12T09:56:01;8.07;;;4.90;;
15913;SDS011;8055;51.930;8.840;2022-09-12T09:58:32;7.38;;;5.20;;
15913;SDS011;8055;51.930;8.840;2022-09-12T10:00:59;6.32;;;4.90;;
15913;SDS011;8055;51.930;8.840;2022-09-12T10:03:31;6.83;;;4.40;;
15913;SDS011;8055;51.930;8.840;2022-09-12T10:08:44;7.57;;;5.03;;
15913;SDS011;8055;51.930;8.840;2022-09-12T10:18:57;5.78;;;4.68;;
15913;SDS011;8055;51.930;8.840;2022-09-12T10:24:31;9.23;;;4.40;;
15913;SDS011;8055;51.930;8.840;2022-09-12T10:27:18;6.75;;;4.57;;
15913;SDS011;8055;51.930;8.840;2022-09-12T10:33:14;4.72;;;4.05;;
15913;SDS011;8055;51.930;8.840;2022-09-12T10:35:16;7.38;;;4.57;;
15913;SDS011;8055;51.930;8.840;2022-09-12T10:40:53;6.10;;;5.10;;
15913;SDS011;8055;51.930;8.840;2022-09-12T10:43:17;6.68;;;4.70;;
15913;SDS011;8055;51.930;8.840;2022-09-12T10:45:55;5.50;;;4.43;;
15913;SDS011;8055;51.930;8.840;2022-09-12T10:48:31;7.25;;;4.00;;
15913;SDS011;8055;51.930;8.840;2022-09-12T10:50:57;5.10;;;4.05;;
15913;SDS011;8055;51.930;8.840;2022-09-12T10:53:40;6.95;;;3.75;;
15913;SDS011;8055;51.930;8.840;2022-09-12T11:01:38;4.57;;;3.25;;
15913;SDS011;8055;51.930;8.840;2022-09-12T11:18:04;5.40;;;3.63;;
15913;SDS011;8055;51.930;8.840;2022-09-12T11:33:52;4.28;;;3.83;;
15913;SDS011;8055;51.930;8.840;2022-09-12T11:38:51;7.28;;;4.15;;
15913;SDS011;8055;51.930;8.840;2022-09-12T11:41:29;5.60;;;4.85;;
15913;SDS011;8055;51.930;8.840;2022-09-12T11:46:36;5.00;;;4.10;;
15913;SDS011;8055;51.930;8.840;2022-09-12T11:51:43;5.03;;;3.90;;
15913;SDS011;8055;51.930;8.840;2022-09-12T12:05:25;5.82;;;4.53;;
15913;SDS011;8055;51.930;8.840;2022-09-12T12:07:56;5.47;;;3.83;;
15913;SDS011;8055;51.930;8.840;2022-09-12T12:12:58;5.65;;;4.63;;
15913;SDS011;8055;51.930;8.840;2022-09-12T12:15:26;5.80;;;3.88;;
15913;SDS011;8055;51.930;8.840;2022-09-12T12:20:32;4.82;;;3.65;;
15913;SDS011;8055;51.930;8.840;2022-09-12T12:22:58;6.90;;;4.50;;
15913;SDS011;8055;51.930;8.840;2022-09-12T12:25:25;4.75;;;3.97;;
15913;SDS011;8055;51.930;8.840;2022-09-12T12:28:04;6.65;;;4.00;;
15913;SDS011;8055;51.930;8.840;2022-09-12T12:32:59;5.40;;;4.15;;
15913;SDS011;8055;51.930;8.840;2022-09-12T12:35:44;5.63;;;4.28;;
15913;SDS011;8055;51.930;8.840;2022-09-12T12:38:27;5.68;;;4.47;;
15913;SDS011;8055;51.930;8.840;2022-09-12T12:43:43;6.38;;;4.15;;
15913;SDS011;8055;51.930;8.840;2022-09-12T12:46:12;5.03;;;3.92;;
15913;SDS011;8055;51.930;8.840;2022-09-12T12:49:00;7.38;;;3.75;;
15913;SDS011;8055;51.930;8.840;2022-09-12T12:51:54;8.05;;;4.40;;
15913;SDS011;8055;51.930;8.840;2022-09-12T12:55:03;6.68;;;4.38;;
15913;SDS011;8055;51.930;8.840;2022-09-12T13:05:25;6.93;;;3.67;;
15913;SDS011;8055;51.930;8.840;2022-09-12T13:08:05;4.55;;;3.38;;
15913;SDS011;8055;51.930;8.840;2022-09-12T13:10:34;5.25;;;3.30;;
15913;SDS011;8055;51.930;8.840;2022-09-12T13:13:01;5.22;;;4.05;;
15913;SDS011;8055;51.930;8.840;2022-09-12T13:18:05;5.22;;;3.95;;
15913;SDS011;8055;51.930;8.840;2022-09-12T13:20:43;5.65;;;4.05;;
15913;SDS011;8055;51.930;8.840;2022-09-12T13:23:24;6.30;;;3.95;;
15913;SDS011;8055;51.930;8.840;2022-09-12T13:25:56;3.97;;;3.58;;
15913;SDS011;8055;51.930;8.840;2022-09-12T13:28:23;4.10;;;3.60;;
15913;SDS011;8055;51.930;8.840;2022-09-12T13:30:58;3.33;;;2.88;;
15913;SDS011;8055;51.930;8.840;2022-09-12T13:36:09;3.42;;;2.42;;
15913;SDS011;8055;51.930;8.840;2022-09-12T13:42:19;6.68;;;3.17;;
15913;SDS011;8055;51.930;8.840;2022-09-12T13:45:06;3.58;;;2.20;;
15913;SDS011;8055;51.930;8.840;2022-09-12T13:50:03;3.97;;;2.30;;
15913;SDS011;8055;51.930;8.840;2022-09-12T13:52:31;3.60;;;3.10;;
15913;SDS011;8055;51.930;8.840;2022-09-12T13:54:59;6.35;;;3.17;;
15913;SDS011;8055;51.930;8.840;2022-09-12T13:57:33;3.67;;;3.13;;
15913;SDS011;8055;51.930;8.840;2022-09-12T14:00:11;4.38;;;3.10;;
15913;SDS011;8055;51.930;8.840;2022-09-12T14:02:43;4.97;;;3.03;;
15913;SDS011;8055;51.930;8.840;2022-09-12T14:05:20;3.30;;;2.60;;
15913;SDS011;8055;51.930;8.840;2022-09-12T14:07:53;2.33;;;2.13;;
15913;SDS011;8055;51.930;8.840;2022-09-12T14:12:58;4.40;;;2.15;;
15913;SDS011;8055;51.930;8.840;2022-09-12T14:15:27;3.65;;;2.65;;
15913;SDS011;8055;51.930;8.840;2022-09-12T14:17:56;3.35;;;2.42;;
15913;SDS011;8055;51.930;8.840;2022-09-12T14:20:25;3.13;;;2.53;;
15913;SDS011;8055;51.930;8.840;2022-09-12T14:22:57;3.55;;;2.80;;
15913;SDS011;8055;51.930;8.840;2022-09-12T14:25:25;3.00;;;2.70;;
15913;SDS011;8055;51.930;8.840;2022-09-12T14:27:54;3.55;;;2.85;;
15913;SDS011;8055;51.930;8.840;2022-09-12T14:35:37;6.05;;;2.88;;
15913;SDS011;8055;51.930;8.840;2022-09-12T14:43:19;5.20;;;3.20;;
15913;SDS011;8055;51.930;8.840;2022-09-12T14:45:55;4.00;;;2.55;;
15913;SDS011;8055;51.930;8.840;2022-09-12T14:48:41;3.53;;;2.97;;
15913;SDS011;8055;51.930;8.840;2022-09-12T14:51:20;5.07;;;3.05;;
15913;SDS011;8055;51.930;8.840;2022-09-12T14:53:51;4.78;;;3.45;;
15913;SDS011;8055;51.930;8.840;2022-09-12T14:56:18;3.67;;;3.17;;
15913;SDS011;8055;51.930;8.840;2022-09-12T14:58:44;4.13;;;3.22;;
15913;SDS011;8055;51.930;8.840;2022-09-12T15:06:27;3.65;;;3.35;;
15913;SDS011;8055;51.930;8.840;2022-09-12T15:09:13;4.53;;;2.90;;
15913;SDS011;8055;51.930;8.840;2022-09-12T15:11:38;3.92;;;3.00;;
15913;SDS011;8055;51.930;8.840;2022-09-12T15:14:13;3.92;;;3.20;;
15913;SDS011;8055;51.930;8.840;2022-09-12T15:16:39;4.53;;;2.90;;
15913;SDS011;8055;51.930;8.840;2022-09-12T15:19:05;4.60;;;2.58;;
15913;SDS011;8055;51.930;8.840;2022-09-12T15:21:31;5.38;;;2.63;;
15913;SDS011;8055;51.930;8.840;2022-09-12T15:23:56;3.63;;;3.15;;
15913;SDS011;8055;51.930;8.840;2022-09-12T15:26:22;7.70;;;3.10;;
15913;SDS011;8055;51.930;8.840;2022-09-12T15:28:51;4.82;;;3.60;;
15913;SDS011;8055;51.930;8.840;2022-09-12T15:31:24;3.35;;;3.05;;
15913;SDS011;8055;51.930;8.840;2022-09-12T15:33:51;4.47;;;3.08;;
15913;SDS011;8055;51.930;8.840;2022-09-12T15:36:18;3.50;;;3.20;;
15913;SDS011;8055;51.930;8.840;2022-09-12T15:38:45;3.03;;;2.58;;
15913;SDS011;8055;51.930;8.840;2022-09-12T15:41:15;4.95;;;2.80;;
15913;SDS011;8055;51.930;8.840;2022-09-12T15:43:45;5.05;;;2.63;;
15913;SDS011;8055;51.930;8.840;2022-09-12T15:46:12;2.90;;;2.70;;
15913;SDS011;8055;51.930;8.840;2022-09-12T15:48:38;3.60;;;2.95;;
15913;SDS011;8055;51.930;8.840;2022-09-12T15:51:05;3.55;;;2.88;;
15913;SDS011;8055;51.930;8.840;2022-09-12T15:53:34;4.15;;;3.10;;
15913;SDS011;8055;51.930;8.840;2022-09-12T15:55:59;3.65;;;3.22;;
15913;SDS011;8055;51.930;8.840;2022-09-12T15:58:25;5.20;;;3.53;;
15913;SDS011;8055;51.930;8.840;2022-09-12T16:00:50;4.65;;;3.67;;
15913;SDS011;8055;51.930;8.840;2022-09-12T16:03:20;5.25;;;3.08;;
15913;SDS011;8055;51.930;8.840;2022-09-12T16:05:47;5.55;;;3.22;;
15913;SDS011;8055;51.930;8.840;2022-09-12T16:08:13;4.53;;;3.08;;
15913;SDS011;8055;51.930;8.840;2022-09-12T16:10:38;4.38;;;3.33;;
15913;SDS011;8055;51.930;8.840;2022-09-12T16:13:07;5.68;;;3.20;;
15913;SDS011;8055;51.930;8.840;2022-09-12T16:15:33;3.40;;;2.83;;
15913;SDS011;8055;51.930;8.840;2022-09-12T16:17:58;3.33;;;3.03;;
15913;SDS011;8055;51.930;8.840;2022-09-12T16:20:23;3.60;;;3.20;;
15913;SDS011;8055;51.930;8.840;2022-09-12T16:22:49;3.53;;;3.10;;
15913;SDS011;8055;51.930;8.840;2022-09-12T16:25:14;3.35;;;3.05;;
15913;SDS011;8055;51.930;8.840;2022-09-12T16:27:41;3.67;;;3.38;;
15913;SDS011;8055;51.930;8.840;2022-09-12T16:30:07;3.70;;;3.13;;
15913;SDS011;8055;51.930;8.840;2022-09-12T16:32:33;4.63;;;3.08;;
15913;SDS011;8055;51.930;8.840;2022-09-12T16:34:58;3.45;;;2.90;;
15913;SDS011;8055;51.930;8.840;2022-09-12T16:37:24;5.05;;;3.00;;
15913;SDS011;8055;51.930;8.840;2022-09-12T16:39:49;3.40;;;3.10;;
15913;SDS011;8055;51.930;8.840;2022-09-12T16:42:16;3.20;;;2.90;;
15913;SDS011;8055;51.930;8.840;2022-09-12T16:44:43;3.47;;;3.17;;
15913;SDS011;8055;51.930;8.840;2022-09-12T16:47:12;4.03;;;2.92;;
15913;SDS011;8055;51.930;8.840;2022-09-12T16:49:37;3.83;;;2.90;;
15913;SDS011;8055;51.930;8.840;2022-09-12T16:52:03;3.33;;;3.03;;
15913;SDS011;8055;51.930;8.840;2022-09-12T16:54:29;7.45;;;3.33;;
15913;SDS011;8055;51.930;8.840;2022-09-12T16:56:55;3.38;;;2.90;;
15913;SDS011;8055;51.930;8.840;2022-09-12T16:59:20;3.92;;;3.25;;
15913;SDS011;8055;51.930;8.840;2022-09-12T17:01:45;3.95;;;3.15;;
15913;SDS011;8055;51.930;8.840;2022-09-12T17:04:11;4.07;;;3.20;;
15913;SDS011;8055;51.930;8.840;2022-09-12T17:06:36;3.45;;;2.85;;
15913;SDS011;8055;51.930;8.840;2022-09-12T17:09:02;3.35;;;3.05;;
15913;SDS011;8055;51.930;8.840;2022-09-12T17:11:33;3.67;;;3.38;;
15913;SDS011;8055;51.930;8.840;2022-09-12T17:16:27;3.72;;;3.10;;
15913;SDS011;8055;51.930;8.840;2022-09-12T17:18:53;3.88;;;3.30;;
15913;SDS011;8055;51.930;8.840;2022-09-12T17:21:19;3.75;;;3.20;;
15913;SDS011;8055;51.930;8.840;2022-09-12T17:23:45;3.97;;;3.38;;
15913;SDS011;8055;51.930;8.840;2022-09-12T17:26:11;3.95;;;3.38;;
15913;SDS011;8055;51.930;8.840;2022-09-12T17:28:37;5.18;;;3.35;;
15913;SDS011;8055;51.930;8.840;2022-09-12T17:31:04;4.20;;;3.33;;
15913;SDS011;8055;51.930;8.840;2022-09-12T17:33:31;5.22;;;3.42;;
15913;SDS011;8055;51.930;8.840;2022-09-12T17:36:00;3.38;;;3.08;;
15913;SDS011;8055;51.930;8.840;2022-09-12T17:38:28;5.80;;;3.40;;
15913;SDS011;8055;51.930;8.840;2022-09-12T17:40:56;4.22;;;3.38;;
15913;SDS011;8055;51.930;8.840;2022-09-12T17:43:21;4.22;;;3.30;;
15913;SDS011;8055;51.930;8.840;2022-09-12T17:45:49;3.50;;;3.20;;
15913;SDS011;8055;51.930;8.840;2022-09-12T17:48:19;6.80;;;3.50;;
15913;SDS011;8055;51.930;8.840;2022-09-12T17:50:44;3.42;;;3.10;;
15913;SDS011;8055;51.930;8.840;2022-09-12T17:53:11;4.43;;;3.55;;
15913;SDS011;8055;51.930;8.840;2022-09-12T17:55:37;4.35;;;3.70;;
15913;SDS011;8055;51.930;8.840;2022-09-12T17:58:04;3.75;;;3.30;;
15913;SDS011;8055;51.930;8.840;2022-09-12T18:00:30;4.45;;;3.80;;
15913;SDS011;8055;51.930;8.840;2022-09-12T18:03:14;3.75;;;3.35;;
15913;SDS011;8055;51.930;8.840;2022-09-12T18:05:46;5.28;;;3.67;;
15913;SDS011;8055;51.930;8.840;2022-09-12T18:08:16;5.13;;;3.50;;
15913;SDS011;8055;51.930;8.840;2022-09-12T18:10:43;4.88;;;3.97;;
15913;SDS011;8055;51.930;8.840;2022-09-12T18:13:09;6.30;;;3.90;;
15913;SDS011;8055;51.930;8.840;2022-09-12T18:15:35;5.57;;;3.55;;
15913;SDS011;8055;51.930;8.840;2022-09-12T18:18:01;3.65;;;3.30;;
15913;SDS011;8055;51.930;8.840;2022-09-12T18:20:27;4.57;;;3.80;;
15913;SDS011;8055;51.930;8.840;2022-09-12T18:22:53;6.28;;;3.80;;
15913;SDS011;8055;51.930;8.840;2022-09-12T18:25:18;5.93;;;3.80;;